createdAt,value
2023-11-11T00:00:01.553Z,100.00
2023-11-11T00:02:33.044Z,100.00
2023-11-11T00:05:00.318Z,100.00
2023-11-11T00:07:27.582Z,100.00
2023-11-11T00:09:54.816Z,63.45
2023-11-11T00:14:50.098Z,100.00
2023-11-11T00:17:17.455Z,100.00
2023-11-11T00:19:46.189Z,63.45
2023-11-11T00:22:14.042Z,64.39
2023-11-11T00:24:41.196Z,100.00
2023-11-11T00:27:08.355Z,100.00
2023-11-11T00:29:36.073Z,64.39
2023-11-11T00:32:04.286Z,64.39
2023-11-11T00:34:31.530Z,64.39
2023-11-11T00:36:59.155Z,64.39
2023-11-11T00:39:27.147Z,64.00
2023-11-11T00:41:54.313Z,100.00
2023-11-11T00:44:22.559Z,64.00
2023-11-11T00:46:50.106Z,100.00
2023-11-11T00:49:17.328Z,64.00
2023-11-11T00:51:44.703Z,100.00
2023-11-11T00:54:12.056Z,64.00
2023-11-11T00:56:40.281Z,100.00
2023-11-11T00:59:07.921Z,100.00
2023-11-11T01:01:36.254Z,100.00
2023-11-11T01:04:06.236Z,100.00
2023-11-11T01:06:34.950Z,100.00
2023-11-11T01:09:02.575Z,100.00
2023-11-11T01:11:29.955Z,64.00
2023-11-11T01:13:57.318Z,100.00
2023-11-11T01:16:24.627Z,100.00
2023-11-11T01:18:52.647Z,100.00
2023-11-11T01:21:20.071Z,64.00
2023-11-11T01:23:47.379Z,64.00
2023-11-11T01:26:14.643Z,63.76
2023-11-11T01:28:41.946Z,63.79
2023-11-11T01:31:09.534Z,63.79
2023-11-11T01:33:39.754Z,100.00
2023-11-11T01:36:07.396Z,100.00
2023-11-11T01:38:35.633Z,63.79
2023-11-11T01:41:06.592Z,100.00
2023-11-11T01:43:33.946Z,100.00
2023-11-11T01:46:07.204Z,100.00
2023-11-11T01:48:36.304Z,100.00
2023-11-11T01:51:04.449Z,100.00
2023-11-11T01:53:35.112Z,100.00
2023-11-11T01:56:02.968Z,100.00
2023-11-11T01:58:31.361Z,100.00
2023-11-11T02:01:00.145Z,100.00
2023-11-11T02:03:27.559Z,63.79
2023-11-11T02:05:55.347Z,100.00
2023-11-11T02:08:25.699Z,63.78
2023-11-11T02:10:54.068Z,63.78
2023-11-11T02:13:23.268Z,100.00
2023-11-11T02:15:51.144Z,100.00
2023-11-11T02:18:18.821Z,63.78
2023-11-11T02:20:46.230Z,100.00
2023-11-11T02:23:13.492Z,100.00
2023-11-11T02:28:08.503Z,100.00
2023-11-11T02:30:36.063Z,100.00
2023-11-11T02:33:03.763Z,100.00
2023-11-11T02:35:32.997Z,100.00
2023-11-11T02:38:01.649Z,100.00
2023-11-11T02:40:28.904Z,100.00
2023-11-11T02:42:56.037Z,63.74
2023-11-11T02:45:25.009Z,100.00
2023-11-11T02:47:52.388Z,63.74
2023-11-11T02:50:19.576Z,100.00
2023-11-11T02:52:46.958Z,64.04
2023-11-11T02:55:14.338Z,100.00
2023-11-11T02:57:41.500Z,100.00
2023-11-11T03:00:11.904Z,100.00
2023-11-11T03:02:41.534Z,100.00
2023-11-11T03:05:09.212Z,100.00
2023-11-11T03:07:36.679Z,100.00
2023-11-11T03:10:06.551Z,100.00
2023-11-11T03:12:34.323Z,100.00
2023-11-11T03:15:01.687Z,100.00
2023-11-11T03:17:32.753Z,100.00
2023-11-11T03:20:00.613Z,100.00
2023-11-11T03:22:31.263Z,100.00
2023-11-11T03:24:59.027Z,100.00
2023-11-11T03:27:26.206Z,63.66
2023-11-11T03:29:53.540Z,63.66
2023-11-11T03:32:20.787Z,63.66
2023-11-11T03:34:47.999Z,100.00
2023-11-11T03:37:15.261Z,63.66
2023-11-11T03:39:44.846Z,63.66
2023-11-11T03:42:12.469Z,100.00
2023-11-11T03:44:40.035Z,100.00
2023-11-11T03:47:07.663Z,100.00
2023-11-11T03:49:34.908Z,100.00
2023-11-11T03:52:02.100Z,100.00
2023-11-11T03:54:29.495Z,100.00
2023-11-11T03:56:56.736Z,100.00
2023-11-11T03:59:24.016Z,100.00
2023-11-11T04:01:53.013Z,100.00
2023-11-11T04:04:20.650Z,100.00
2023-11-11T04:06:48.025Z,63.74
2023-11-11T04:09:15.210Z,100.00
2023-11-11T04:11:42.463Z,100.00
2023-11-11T04:14:09.636Z,63.74
2023-11-11T04:16:36.913Z,63.74
2023-11-11T04:19:04.989Z,100.00
2023-11-11T04:21:32.633Z,100.00
2023-11-11T04:23:59.796Z,100.00
2023-11-11T04:26:26.932Z,100.00
2023-11-11T04:28:54.858Z,100.00
2023-11-11T04:31:22.165Z,100.00
2023-11-11T04:33:49.738Z,100.00
2023-11-11T04:36:17.111Z,100.00
2023-11-11T04:38:46.109Z,100.00
2023-11-11T04:41:14.399Z,100.00
2023-11-11T04:43:41.606Z,100.00
2023-11-11T04:46:08.938Z,100.00
2023-11-11T04:48:36.117Z,100.00
2023-11-11T04:51:03.470Z,100.00
2023-11-11T04:53:30.577Z,100.00
2023-11-11T04:55:57.673Z,100.00
2023-11-11T04:58:26.061Z,100.00
2023-11-11T05:00:55.172Z,63.96
2023-11-11T05:03:22.572Z,63.96
2023-11-11T05:05:49.795Z,63.96
2023-11-11T05:08:17.164Z,63.96
2023-11-11T05:10:44.437Z,64.02
2023-11-11T05:13:11.707Z,64.02
2023-11-11T05:15:47.609Z,64.02
2023-11-11T05:18:17.733Z,100.00
2023-11-11T05:20:44.900Z,64.02
2023-11-11T05:23:12.143Z,64.02
2023-11-11T05:25:39.493Z,64.02
2023-11-11T05:28:07.387Z,64.02
2023-11-11T05:30:34.925Z,64.02
2023-11-11T05:33:02.367Z,100.00
2023-11-11T05:35:29.543Z,64.08
2023-11-11T05:37:56.747Z,100.00
2023-11-11T05:40:23.867Z,64.08
2023-11-11T05:42:51.131Z,64.08
2023-11-11T05:45:19.359Z,64.08
2023-11-11T05:47:46.868Z,64.08
2023-11-11T05:50:14.668Z,64.08
2023-11-11T05:52:42.860Z,100.00
2023-11-11T05:55:10.086Z,64.08
2023-11-11T05:57:40.678Z,64.08
2023-11-11T06:00:13.116Z,100.00
2023-11-11T06:02:40.810Z,64.08
2023-11-11T06:05:08.596Z,64.08
2023-11-11T06:07:35.939Z,64.56
2023-11-11T06:10:03.926Z,100.00
2023-11-11T06:12:31.325Z,64.56
2023-11-11T06:14:59.235Z,64.56
2023-11-11T06:17:27.314Z,64.47
2023-11-11T06:19:55.053Z,64.47
2023-11-11T06:22:22.451Z,64.37
2023-11-11T06:24:49.646Z,64.37
2023-11-11T06:27:16.958Z,64.20
2023-11-11T06:29:44.256Z,64.57
2023-11-11T06:32:11.604Z,64.57
2023-11-11T06:34:38.789Z,64.57
2023-11-11T06:37:05.958Z,64.57
2023-11-11T06:39:33.758Z,64.57
2023-11-11T06:42:01.332Z,64.57
2023-11-11T06:44:28.489Z,64.57
2023-11-11T06:46:55.583Z,64.57
2023-11-11T06:49:22.907Z,64.57
2023-11-11T06:51:50.185Z,64.57
2023-11-11T06:54:17.311Z,64.57
2023-11-11T06:56:44.469Z,64.10
2023-11-11T06:59:12.375Z,64.33
2023-11-11T07:01:40.982Z,63.80
2023-11-11T07:04:09.084Z,64.03
2023-11-11T07:06:36.375Z,64.08
2023-11-11T07:09:03.720Z,63.73
2023-11-11T07:11:30.932Z,63.81
2023-11-11T07:13:58.117Z,63.79
2023-11-11T07:16:25.423Z,63.84
2023-11-11T07:18:52.701Z,63.84
2023-11-11T07:21:25.717Z,63.84
2023-11-11T07:23:54.372Z,63.64
2023-11-11T07:26:21.806Z,63.62
2023-11-11T07:28:50.276Z,63.68
2023-11-11T07:31:18.704Z,63.68
2023-11-11T07:33:47.037Z,63.68
2023-11-11T07:36:14.459Z,63.54
2023-11-11T07:38:42.849Z,63.28
2023-11-11T07:41:11.750Z,63.20
2023-11-11T07:43:42.290Z,63.23
2023-11-11T07:46:10.919Z,63.03
2023-11-11T07:48:38.644Z,63.02
2023-11-11T07:51:06.743Z,62.77
2023-11-11T07:53:34.136Z,62.81
2023-11-11T07:56:04.311Z,62.63
2023-11-11T08:01:04.924Z,62.95
2023-11-11T08:03:34.296Z,62.33
2023-11-11T08:06:01.487Z,62.71
2023-11-11T08:08:31.006Z,62.37
2023-11-11T08:10:58.827Z,62.78
2023-11-11T08:13:26.408Z,62.37
2023-11-11T08:15:54.296Z,62.31
2023-11-11T08:18:22.010Z,62.15
2023-11-11T08:20:49.753Z,62.32
2023-11-11T08:23:17.067Z,62.07
2023-11-11T08:25:44.318Z,61.86
2023-11-11T08:28:11.725Z,61.95
2023-11-11T08:30:40.615Z,62.29
2023-11-11T08:33:09.764Z,62.14
2023-11-11T08:35:36.903Z,62.30
2023-11-11T08:38:04.047Z,62.18
2023-11-11T08:40:31.184Z,61.94
2023-11-11T08:42:58.586Z,61.48
2023-11-11T08:45:26.224Z,61.60
2023-11-11T08:47:53.530Z,61.19
2023-11-11T08:50:21.827Z,61.13
2023-11-11T08:52:49.942Z,60.57
2023-11-11T08:55:17.459Z,60.61
2023-11-11T08:57:46.074Z,59.90
2023-11-11T09:00:13.951Z,60.49
2023-11-11T09:02:41.589Z,60.49
2023-11-11T09:05:08.992Z,59.95
2023-11-11T09:07:36.288Z,59.97
2023-11-11T09:10:06.884Z,60.17
2023-11-11T09:12:34.347Z,60.37
2023-11-11T09:15:01.973Z,59.78
2023-11-11T09:17:31.435Z,59.95
2023-11-11T09:19:59.076Z,59.67
2023-11-11T09:22:26.816Z,58.90
2023-11-11T09:24:54.393Z,59.05
2023-11-11T09:27:21.578Z,59.25
2023-11-11T09:29:49.030Z,58.81
2023-11-11T09:32:16.273Z,58.91
2023-11-11T09:34:44.123Z,59.17
2023-11-11T09:37:12.225Z,58.67
2023-11-11T09:39:39.620Z,59.18
2023-11-11T09:42:11.593Z,59.38
2023-11-11T09:47:18.705Z,59.25
2023-11-11T09:49:46.295Z,59.52
2023-11-11T09:52:15.305Z,59.47
2023-11-11T09:54:49.445Z,59.51
2023-11-11T09:57:21.912Z,59.45
2023-11-11T09:59:55.037Z,59.41
2023-11-11T10:02:25.106Z,59.09
2023-11-11T10:04:54.508Z,59.46
2023-11-11T10:07:23.119Z,59.00
2023-11-11T10:09:52.174Z,59.31
2023-11-11T10:12:19.383Z,58.98
2023-11-11T10:14:48.547Z,59.43
2023-11-11T10:17:15.764Z,59.62
2023-11-11T10:19:54.454Z,59.32
2023-11-11T10:22:27.411Z,59.04
2023-11-11T10:24:57.747Z,59.07
2023-11-11T10:27:25.277Z,59.30
2023-11-11T10:29:52.815Z,59.00
2023-11-11T10:32:20.867Z,59.04
2023-11-11T10:34:48.227Z,59.35
2023-11-11T10:37:15.395Z,58.85
2023-11-11T10:39:42.543Z,59.00
2023-11-11T10:42:09.739Z,58.83
2023-11-11T10:44:36.967Z,59.20
2023-11-11T10:47:05.376Z,58.69
2023-11-11T10:49:35.945Z,58.57
2023-11-11T10:52:03.580Z,58.87
2023-11-11T10:54:32.625Z,58.57
2023-11-11T10:57:01.628Z,58.43
2023-11-11T10:59:29.602Z,58.78
2023-11-11T11:01:57.154Z,58.52
2023-11-11T11:04:28.449Z,58.22
2023-11-11T11:07:05.828Z,58.12
2023-11-11T11:09:55.913Z,58.36
2023-11-11T11:12:39.760Z,58.09
2023-11-11T11:15:07.765Z,57.90
2023-11-11T11:17:42.672Z,57.40
2023-11-11T11:20:21.896Z,57.52
2023-11-11T11:22:49.373Z,57.56
2023-11-11T11:25:39.353Z,57.65
2023-11-11T11:28:13.465Z,57.17
2023-11-11T11:30:43.433Z,57.77
2023-11-11T11:33:40.557Z,57.80
2023-11-11T11:36:10.660Z,57.99
2023-11-11T11:38:40.626Z,57.62
2023-11-11T11:41:22.393Z,58.01
2023-11-11T11:43:55.032Z,57.89
2023-11-11T11:46:23.185Z,58.05
2023-11-11T11:48:52.275Z,57.93
2023-11-11T11:51:21.252Z,58.05
2023-11-11T11:53:54.739Z,57.96
2023-11-11T11:56:30.689Z,58.22
2023-11-11T11:59:00.506Z,57.93
2023-11-11T12:01:29.887Z,57.79
2023-11-11T12:03:58.146Z,58.00
2023-11-11T12:06:26.376Z,58.27
2023-11-11T12:08:56.224Z,58.17
2023-11-11T12:11:25.421Z,58.46
2023-11-11T12:13:53.923Z,58.16
2023-11-11T12:16:21.912Z,58.34
2023-11-11T12:18:49.003Z,57.85
2023-11-11T12:21:20.009Z,58.50
2023-11-11T12:23:49.231Z,57.99
2023-11-11T12:26:17.684Z,58.13
2023-11-11T12:28:44.902Z,58.25
2023-11-11T12:31:12.226Z,58.47
2023-11-11T12:33:39.568Z,58.56
2023-11-11T12:36:07.330Z,58.29
2023-11-11T12:38:34.527Z,58.73
2023-11-11T12:41:11.230Z,58.45
2023-11-11T12:43:41.583Z,59.20
2023-11-11T12:46:17.235Z,58.86
2023-11-11T12:48:44.743Z,59.16
2023-11-11T12:51:31.213Z,58.98
2023-11-11T12:53:58.864Z,59.03
2023-11-11T12:56:26.942Z,59.02
2023-11-11T12:59:11.450Z,59.15
2023-11-11T13:01:39.509Z,59.85
2023-11-11T13:04:09.567Z,59.58
2023-11-11T13:06:37.399Z,59.79
2023-11-11T13:09:15.722Z,59.20
2023-11-11T13:11:44.982Z,59.65
2023-11-11T13:14:13.890Z,59.63
2023-11-11T13:16:45.364Z,59.59
2023-11-11T13:19:12.997Z,59.82
2023-11-11T13:21:40.972Z,59.70
2023-11-11T13:24:09.170Z,59.87
2023-11-11T13:26:37.309Z,59.88
2023-11-11T13:29:06.530Z,59.47
2023-11-11T13:31:33.800Z,59.51
2023-11-11T13:34:01.234Z,60.06
2023-11-11T13:36:31.739Z,60.17
2023-11-11T13:39:01.950Z,59.93
2023-11-11T13:41:37.580Z,60.20
2023-11-11T13:44:05.183Z,60.46
2023-11-11T13:46:32.959Z,60.57
2023-11-11T13:49:02.046Z,60.12
2023-11-11T13:51:29.305Z,60.26
2023-11-11T13:53:57.119Z,60.22
2023-11-11T13:56:26.745Z,60.75
2023-11-11T13:58:57.085Z,61.12
2023-11-11T14:01:28.629Z,60.46
2023-11-11T14:03:58.102Z,60.60
2023-11-11T14:06:30.460Z,60.20
2023-11-11T14:08:59.615Z,60.84
2023-11-11T14:11:28.905Z,61.28
2023-11-11T14:13:56.399Z,60.80
2023-11-11T14:16:25.753Z,60.79
2023-11-11T14:18:53.236Z,60.90
2023-11-11T14:21:20.953Z,60.93
2023-11-11T14:23:48.162Z,60.80
2023-11-11T14:26:16.557Z,60.63
2023-11-11T14:28:43.825Z,60.92
2023-11-11T14:31:11.002Z,60.74
2023-11-11T14:33:38.411Z,60.75
2023-11-11T14:36:06.128Z,60.96
2023-11-11T14:38:34.001Z,61.02
2023-11-11T14:41:04.139Z,60.64
2023-11-11T14:43:31.354Z,60.64
2023-11-11T14:45:58.811Z,60.96
2023-11-11T14:48:27.434Z,61.64
2023-11-11T14:50:54.718Z,61.86
2023-11-11T14:53:22.468Z,61.65
2023-11-11T14:55:50.225Z,61.72
2023-11-11T14:58:17.407Z,100.00
2023-11-11T15:00:45.367Z,100.00
2023-11-11T15:03:14.332Z,100.00
2023-11-11T15:05:41.914Z,100.00
2023-11-11T15:08:10.075Z,100.00
2023-11-11T15:10:41.196Z,100.00
2023-11-11T15:13:17.125Z,100.00
2023-11-11T15:15:49.295Z,100.00
2023-11-11T15:18:17.965Z,100.00
2023-11-11T15:20:45.862Z,100.00
2023-11-11T15:23:15.212Z,100.00
2023-11-11T15:25:42.536Z,100.00
2023-11-11T15:28:09.732Z,100.00
2023-11-11T15:30:37.080Z,100.00
2023-11-11T15:33:05.436Z,61.80
2023-11-11T15:35:33.545Z,61.76
2023-11-11T15:38:02.680Z,100.00
2023-11-11T15:40:29.989Z,100.00
2023-11-11T15:42:57.400Z,100.00
2023-11-11T15:45:24.830Z,100.00
2023-11-11T15:47:52.163Z,100.00
2023-11-11T15:50:20.351Z,100.00
2023-11-11T15:52:47.569Z,61.95
2023-11-11T15:55:15.235Z,100.00
2023-11-11T15:57:42.367Z,61.95
2023-11-11T16:00:10.151Z,100.00
2023-11-11T16:02:43.262Z,100.00
2023-11-11T16:05:10.780Z,100.00
2023-11-11T16:07:38.722Z,100.00
2023-11-11T16:10:06.478Z,100.00
2023-11-11T16:12:33.975Z,100.00
2023-11-11T16:15:01.692Z,100.00
2023-11-11T16:17:33.303Z,100.00
2023-11-11T16:20:00.620Z,100.00
2023-11-11T16:22:28.628Z,100.00
2023-11-11T16:24:56.299Z,100.00
2023-11-11T16:27:23.814Z,100.00
2023-11-11T16:29:53.638Z,100.00
2023-11-11T16:32:23.842Z,100.00
2023-11-11T16:34:51.314Z,100.00
2023-11-11T16:37:18.596Z,100.00
2023-11-11T16:39:46.298Z,100.00
2023-11-11T16:42:14.839Z,100.00
2023-11-11T16:44:48.219Z,100.00
2023-11-11T16:47:15.663Z,100.00
2023-11-11T16:49:44.078Z,100.00
2023-11-11T16:52:11.143Z,100.00
2023-11-11T16:54:38.260Z,100.00
2023-11-11T16:57:05.544Z,100.00
2023-11-11T16:59:32.717Z,100.00
2023-11-11T17:01:59.974Z,100.00
2023-11-11T17:04:27.396Z,100.00
2023-11-11T17:06:54.514Z,100.00
2023-11-11T17:09:23.664Z,100.00
2023-11-11T17:11:50.892Z,100.00
2023-11-11T17:14:18.128Z,100.00
2023-11-11T17:16:45.330Z,100.00
2023-11-11T17:19:13.037Z,61.93
2023-11-11T17:21:40.329Z,100.00
2023-11-11T17:24:08.344Z,100.00
2023-11-11T17:26:35.352Z,100.00
2023-11-11T17:29:02.473Z,100.00
2023-11-11T17:31:30.784Z,100.00
2023-11-11T17:33:58.313Z,100.00
2023-11-11T17:36:32.786Z,100.00
2023-11-11T17:39:00.337Z,100.00
2023-11-11T17:41:27.713Z,100.00
2023-11-11T17:43:55.005Z,61.93
2023-11-11T17:46:23.409Z,100.00
2023-11-11T17:48:51.211Z,100.00
2023-11-11T17:51:20.464Z,100.00
2023-11-11T17:53:48.523Z,100.00
2023-11-11T17:56:23.823Z,100.00
2023-11-11T17:58:51.296Z,100.00
2023-11-11T18:01:18.679Z,100.00
2023-11-11T18:03:46.742Z,100.00
2023-11-11T18:06:14.471Z,100.00
2023-11-11T18:08:42.975Z,100.00
2023-11-11T18:11:11.017Z,100.00
2023-11-11T18:13:38.469Z,100.00
2023-11-11T18:16:09.675Z,100.00
2023-11-11T18:18:36.911Z,100.00
2023-11-11T18:21:04.165Z,100.00
2023-11-11T18:23:31.270Z,100.00
2023-11-11T18:25:58.439Z,100.00
2023-11-11T18:28:25.640Z,100.00
2023-11-11T18:30:52.919Z,100.00
2023-11-11T18:33:20.085Z,100.00
2023-11-11T18:35:48.106Z,100.00
2023-11-11T18:38:15.875Z,100.00
2023-11-11T18:40:44.757Z,100.00
2023-11-11T18:43:13.103Z,100.00
2023-11-11T18:45:40.418Z,100.00
2023-11-11T18:48:07.926Z,100.00
2023-11-11T18:50:35.222Z,100.00
2023-11-11T18:53:02.442Z,100.00
2023-11-11T18:55:30.882Z,100.00
2023-11-11T18:57:58.188Z,100.00
2023-11-11T19:00:25.299Z,100.00
2023-11-11T19:02:52.559Z,100.00
2023-11-11T19:05:19.994Z,100.00
2023-11-11T19:07:47.233Z,100.00
2023-11-11T19:10:14.541Z,100.00
2023-11-11T19:12:41.751Z,100.00
2023-11-11T19:15:10.803Z,100.00
2023-11-11T19:17:42.449Z,100.00
2023-11-11T19:20:12.019Z,100.00
2023-11-11T19:22:39.203Z,100.00
2023-11-11T19:25:07.789Z,100.00
2023-11-11T19:27:37.752Z,100.00
2023-11-11T19:30:06.795Z,100.00
2023-11-11T19:32:34.140Z,100.00
2023-11-11T19:35:01.841Z,100.00
2023-11-11T19:37:31.277Z,100.00
2023-11-11T19:39:58.517Z,100.00
2023-11-11T19:42:26.626Z,100.00
2023-11-11T19:44:54.539Z,100.00
2023-11-11T19:47:23.053Z,100.00
2023-11-11T19:49:50.300Z,100.00
2023-11-11T19:52:17.525Z,61.93
2023-11-11T19:54:44.722Z,61.93
2023-11-11T19:57:11.868Z,100.00
2023-11-11T19:59:39.583Z,100.00
2023-11-11T20:02:10.293Z,100.00
2023-11-11T20:04:39.296Z,100.00
2023-11-11T20:07:06.507Z,100.00
2023-11-11T20:09:37.513Z,100.00
2023-11-11T20:12:05.560Z,100.00
2023-11-11T20:14:32.849Z,100.00
2023-11-11T20:17:00.048Z,100.00
2023-11-11T20:19:27.428Z,100.00
2023-11-11T20:21:56.353Z,100.00
2023-11-11T20:24:23.880Z,100.00
2023-11-11T20:26:50.993Z,100.00
2023-11-11T20:29:18.277Z,100.00
2023-11-11T20:31:45.651Z,100.00
2023-11-11T20:34:12.867Z,100.00
2023-11-11T20:36:44.660Z,100.00
2023-11-11T20:39:11.876Z,100.00
2023-11-11T20:41:43.266Z,100.00
2023-11-11T20:44:10.620Z,100.00
2023-11-11T20:46:38.058Z,100.00
2023-11-11T20:49:05.387Z,100.00
2023-11-11T20:51:32.649Z,100.00
2023-11-11T20:53:59.888Z,100.00
2023-11-11T20:56:27.001Z,100.00
2023-11-11T20:58:54.358Z,100.00
2023-11-11T21:01:24.263Z,100.00
2023-11-11T21:03:52.156Z,100.00
2023-11-11T21:06:22.493Z,100.00
2023-11-11T21:08:50.629Z,100.00
2023-11-11T21:11:17.999Z,100.00
2023-11-11T21:13:45.309Z,100.00
2023-11-11T21:16:12.521Z,100.00
2023-11-11T21:18:40.763Z,100.00
2023-11-11T21:21:07.924Z,100.00
2023-11-11T21:23:35.204Z,100.00
2023-11-11T21:26:02.892Z,100.00
2023-11-11T21:28:30.019Z,100.00
2023-11-11T21:30:57.511Z,100.00
2023-11-11T21:33:24.793Z,100.00
2023-11-11T21:35:51.965Z,100.00
2023-11-11T21:38:20.546Z,100.00
2023-11-11T21:40:47.911Z,100.00
2023-11-11T21:43:15.044Z,100.00
2023-11-11T21:45:42.705Z,100.00
2023-11-11T21:48:09.924Z,100.00
2023-11-11T21:50:37.127Z,100.00
2023-11-11T21:53:04.413Z,100.00
2023-11-11T21:55:31.625Z,100.00
2023-11-11T21:57:59.264Z,100.00
2023-11-11T22:00:26.548Z,100.00
2023-11-11T22:02:54.433Z,100.00
2023-11-11T22:05:22.256Z,100.00
2023-11-11T22:07:49.537Z,100.00
2023-11-11T22:10:16.957Z,100.00
2023-11-11T22:12:44.125Z,60.92
2023-11-11T22:15:11.402Z,100.00
2023-11-11T22:17:38.780Z,60.92
2023-11-11T22:20:07.805Z,100.00
2023-11-11T22:22:40.055Z,100.00
2023-11-11T22:25:08.647Z,100.00
2023-11-11T22:27:36.804Z,100.00
2023-11-11T22:30:05.746Z,100.00
2023-11-11T22:32:33.817Z,60.92
2023-11-11T22:35:01.107Z,60.94
2023-11-11T22:37:28.296Z,60.92
2023-11-11T22:39:56.254Z,60.92
2023-11-11T22:42:23.404Z,100.00
2023-11-11T22:44:50.600Z,100.00
2023-11-11T22:47:18.388Z,63.37
2023-11-11T22:49:46.597Z,63.55
2023-11-11T22:52:15.229Z,63.62
2023-11-11T22:54:42.466Z,63.62
2023-11-11T22:57:09.647Z,63.62
2023-11-11T22:59:37.755Z,100.00
2023-11-11T23:02:05.146Z,100.00
2023-11-11T23:04:32.366Z,63.62
2023-11-11T23:07:01.305Z,63.62
2023-11-11T23:09:28.450Z,63.62
2023-11-11T23:11:55.991Z,100.00
2023-11-11T23:14:23.181Z,100.00
2023-11-11T23:16:50.426Z,62.11
2023-11-11T23:19:17.715Z,62.11
2023-11-11T23:21:45.018Z,62.11
2023-11-11T23:24:12.150Z,62.11
2023-11-11T23:26:39.225Z,61.97
2023-11-11T23:29:06.920Z,100.00
2023-11-11T23:31:34.154Z,100.00
2023-11-11T23:34:01.310Z,100.00
2023-11-11T23:36:28.528Z,100.00
2023-11-11T23:38:55.689Z,100.00
2023-11-11T23:41:23.323Z,100.00
2023-11-11T23:43:50.819Z,100.00
2023-11-11T23:46:18.699Z,100.00
2023-11-11T23:48:47.052Z,100.00
2023-11-11T23:51:14.440Z,100.00
2023-11-11T23:53:43.317Z,100.00
2023-11-11T23:56:10.475Z,100.00
2023-11-11T23:58:37.584Z,100.00
